Accueil
METAR-TAF:

METAR-TAF

Aéroports :

Plaisance, Italie

latitude: 44-55N, longitude: 009-44E, altitude: 134 m

Observation

Le bulletin a été fait il y a 59 minutes, à 15:55 UTC
Vent 1 kt de est/sud-est
Température 4°C
Humidité 81%
Pression 1015 hPa
Visibilité: 3500 m
Nuages fragmentés à une hauteur de 8000 ft
brume

METAR: LIMS 211555Z 12001KT 3500 BR BKN080 04/01 Q1015 RMK BKN VIS MIN 3500 WIND THR30 00000KT YLO

Heure: 17:54 (16:54 UTC)


TAF: absent

Observations et prévisions météorologiques de plus de 4000 aéroports (messages METAR et TAF).

Les stations disponibles sont représentées par des disques jaunes et rouges sur la carte.

Passer la souris dessus pour voir le nom de la station.

Cliquer dessus pour voir les observations et prévisions météorologiques.

Pour changer de carte: cliquez sur les boutons verts avec une croix noire pour zoomer, sur le bouton vert avec un tiret pour effectuer un zoom arrière, ou sur les flèches vertes pour les cartes adjacentes.


METAR-TAF: